sensor_id;sensor_type;location;lat;lon;timestamp;P1;durP1;ratioP1;P2;durP2;ratioP2
16640;SDS011;8434;47.990;7.880;2023-02-28T00:01:44;3.73;;;1.40;;
16640;SDS011;8434;47.990;7.880;2023-02-28T00:04:29;4.23;;;1.20;;
16640;SDS011;8434;47.990;7.880;2023-02-28T00:07:15;3.20;;;1.50;;
16640;SDS011;8434;47.990;7.880;2023-02-28T00:10:00;2.67;;;1.50;;
16640;SDS011;8434;47.990;7.880;2023-02-28T00:12:47;1.43;;;1.10;;
16640;SDS011;8434;47.990;7.880;2023-02-28T00:15:32;2.33;;;1.23;;
16640;SDS011;8434;47.990;7.880;2023-02-28T00:18:18;2.63;;;1.20;;
16640;SDS011;8434;47.990;7.880;2023-02-28T00:21:04;4.57;;;1.40;;
16640;SDS011;8434;47.990;7.880;2023-02-28T00:23:49;2.73;;;1.30;;
16640;SDS011;8434;47.990;7.880;2023-02-28T00:26:34;3.37;;;1.30;;
16640;SDS011;8434;47.990;7.880;2023-02-28T00:29:21;1.27;;;1.00;;
16640;SDS011;8434;47.990;7.880;2023-02-28T00:32:07;4.10;;;1.27;;
16640;SDS011;8434;47.990;7.880;2023-02-28T00:34:52;1.70;;;1.10;;
16640;SDS011;8434;47.990;7.880;2023-02-28T00:37:38;2.33;;;1.13;;
16640;SDS011;8434;47.990;7.880;2023-02-28T00:40:23;4.03;;;1.30;;
16640;SDS011;8434;47.990;7.880;2023-02-28T00:43:10;4.20;;;2.10;;
16640;SDS011;8434;47.990;7.880;2023-02-28T00:45:57;3.43;;;1.50;;
16640;SDS011;8434;47.990;7.880;2023-02-28T00:48:42;2.77;;;1.30;;
16640;SDS011;8434;47.990;7.880;2023-02-28T00:51:28;2.40;;;1.10;;
16640;SDS011;8434;47.990;7.880;2023-02-28T00:54:15;1.50;;;1.10;;
16640;SDS011;8434;47.990;7.880;2023-02-28T00:57:00;3.00;;;1.20;;
16640;SDS011;8434;47.990;7.880;2023-02-28T00:59:46;2.50;;;1.17;;
16640;SDS011;8434;47.990;7.880;2023-02-28T01:02:32;2.00;;;1.20;;
16640;SDS011;8434;47.990;7.880;2023-02-28T01:05:18;3.10;;;1.30;;
16640;SDS011;8434;47.990;7.880;2023-02-28T01:08:04;2.83;;;1.53;;
16640;SDS011;8434;47.990;7.880;2023-02-28T01:10:50;1.53;;;0.83;;
16640;SDS011;8434;47.990;7.880;2023-02-28T01:13:35;1.67;;;1.30;;
16640;SDS011;8434;47.990;7.880;2023-02-28T01:16:20;2.83;;;1.13;;
16640;SDS011;8434;47.990;7.880;2023-02-28T01:19:07;1.60;;;1.10;;
16640;SDS011;8434;47.990;7.880;2023-02-28T01:21:52;2.97;;;1.40;;
16640;SDS011;8434;47.990;7.880;2023-02-28T01:24:38;1.07;;;0.83;;
16640;SDS011;8434;47.990;7.880;2023-02-28T01:27:23;3.13;;;1.20;;
16640;SDS011;8434;47.990;7.880;2023-02-28T01:30:10;2.50;;;1.10;;
16640;SDS011;8434;47.990;7.880;2023-02-28T01:32:55;3.33;;;1.27;;
16640;SDS011;8434;47.990;7.880;2023-02-28T01:35:43;1.73;;;1.10;;
16640;SDS011;8434;47.990;7.880;2023-02-28T01:38:29;4.27;;;1.53;;
16640;SDS011;8434;47.990;7.880;2023-02-28T01:41:16;1.80;;;1.30;;
16640;SDS011;8434;47.990;7.880;2023-02-28T01:44:03;4.77;;;1.60;;
16640;SDS011;8434;47.990;7.880;2023-02-28T01:46:49;3.47;;;1.30;;
16640;SDS011;8434;47.990;7.880;2023-02-28T01:49:35;4.70;;;1.50;;
16640;SDS011;8434;47.990;7.880;2023-02-28T01:52:22;2.53;;;1.20;;
16640;SDS011;8434;47.990;7.880;2023-02-28T01:55:11;5.93;;;1.60;;
16640;SDS011;8434;47.990;7.880;2023-02-28T01:57:58;3.60;;;1.30;;
16640;SDS011;8434;47.990;7.880;2023-02-28T02:00:43;2.60;;;1.30;;
16640;SDS011;8434;47.990;7.880;2023-02-28T02:03:29;2.53;;;1.30;;
16640;SDS011;8434;47.990;7.880;2023-02-28T02:06:15;2.60;;;1.80;;
16640;SDS011;8434;47.990;7.880;2023-02-28T02:09:02;2.93;;;1.30;;
16640;SDS011;8434;47.990;7.880;2023-02-28T02:11:47;2.47;;;1.53;;
16640;SDS011;8434;47.990;7.880;2023-02-28T02:14:43;4.60;;;1.47;;
16640;SDS011;8434;47.990;7.880;2023-02-28T02:17:34;3.83;;;1.37;;
16640;SDS011;8434;47.990;7.880;2023-02-28T02:23:31;1.63;;;0.90;;
16640;SDS011;8434;47.990;7.880;2023-02-28T02:26:26;3.97;;;1.03;;
16640;SDS011;8434;47.990;7.880;2023-02-28T02:29:18;2.90;;;1.20;;
16640;SDS011;8434;47.990;7.880;2023-02-28T02:35:11;6.03;;;1.10;;
16640;SDS011;8434;47.990;7.880;2023-02-28T02:37:59;2.60;;;1.40;;
16640;SDS011;8434;47.990;7.880;2023-02-28T02:40:50;2.27;;;1.27;;
16640;SDS011;8434;47.990;7.880;2023-02-28T02:43:39;4.37;;;0.97;;
16640;SDS011;8434;47.990;7.880;2023-02-28T02:46:26;2.53;;;1.40;;
16640;SDS011;8434;47.990;7.880;2023-02-28T02:49:15;1.73;;;1.20;;
16640;SDS011;8434;47.990;7.880;2023-02-28T02:52:03;2.23;;;1.30;;
16640;SDS011;8434;47.990;7.880;2023-02-28T02:54:50;2.13;;;1.10;;
16640;SDS011;8434;47.990;7.880;2023-02-28T02:57:38;2.37;;;1.00;;
16640;SDS011;8434;47.990;7.880;2023-02-28T03:00:26;1.90;;;1.10;;
16640;SDS011;8434;47.990;7.880;2023-02-28T03:03:13;1.77;;;1.00;;
16640;SDS011;8434;47.990;7.880;2023-02-28T03:06:02;1.83;;;0.90;;
16640;SDS011;8434;47.990;7.880;2023-02-28T03:08:49;1.40;;;1.13;;
16640;SDS011;8434;47.990;7.880;2023-02-28T03:11:35;2.33;;;0.93;;
16640;SDS011;8434;47.990;7.880;2023-02-28T03:14:25;3.13;;;1.50;;
16640;SDS011;8434;47.990;7.880;2023-02-28T03:17:17;1.13;;;1.00;;
16640;SDS011;8434;47.990;7.880;2023-02-28T03:20:07;1.30;;;1.10;;
16640;SDS011;8434;47.990;7.880;2023-02-28T03:22:59;2.57;;;1.10;;
16640;SDS011;8434;47.990;7.880;2023-02-28T03:25:52;2.37;;;1.20;;
16640;SDS011;8434;47.990;7.880;2023-02-28T03:28:42;1.90;;;1.10;;
16640;SDS011;8434;47.990;7.880;2023-02-28T03:31:30;3.00;;;1.10;;
16640;SDS011;8434;47.990;7.880;2023-02-28T03:34:19;2.30;;;1.30;;
16640;SDS011;8434;47.990;7.880;2023-02-28T03:37:07;2.10;;;1.20;;
16640;SDS011;8434;47.990;7.880;2023-02-28T03:39:54;2.00;;;1.00;;
16640;SDS011;8434;47.990;7.880;2023-02-28T03:42:42;3.13;;;1.00;;
16640;SDS011;8434;47.990;7.880;2023-02-28T03:45:29;1.80;;;1.20;;
16640;SDS011;8434;47.990;7.880;2023-02-28T03:48:17;3.07;;;1.20;;
16640;SDS011;8434;47.990;7.880;2023-02-28T03:51:05;2.37;;;0.77;;
16640;SDS011;8434;47.990;7.880;2023-02-28T03:53:52;2.23;;;1.10;;
16640;SDS011;8434;47.990;7.880;2023-02-28T03:56:39;3.20;;;1.37;;
16640;SDS011;8434;47.990;7.880;2023-02-28T03:59:27;2.37;;;1.10;;
16640;SDS011;8434;47.990;7.880;2023-02-28T04:02:13;2.80;;;1.10;;
16640;SDS011;8434;47.990;7.880;2023-02-28T04:04:59;3.60;;;1.00;;
16640;SDS011;8434;47.990;7.880;2023-02-28T04:07:45;3.23;;;1.00;;
16640;SDS011;8434;47.990;7.880;2023-02-28T04:10:30;3.40;;;1.00;;
16640;SDS011;8434;47.990;7.880;2023-02-28T04:13:16;2.10;;;1.20;;
16640;SDS011;8434;47.990;7.880;2023-02-28T04:16:03;2.43;;;0.80;;
16640;SDS011;8434;47.990;7.880;2023-02-28T04:18:55;2.43;;;1.00;;
16640;SDS011;8434;47.990;7.880;2023-02-28T04:21:46;6.17;;;1.20;;
16640;SDS011;8434;47.990;7.880;2023-02-28T04:24:32;3.33;;;1.00;;
16640;SDS011;8434;47.990;7.880;2023-02-28T04:27:18;2.73;;;1.10;;
16640;SDS011;8434;47.990;7.880;2023-02-28T04:30:03;3.37;;;1.17;;
16640;SDS011;8434;47.990;7.880;2023-02-28T04:32:50;3.90;;;1.23;;
16640;SDS011;8434;47.990;7.880;2023-02-28T04:35:35;2.40;;;0.90;;
16640;SDS011;8434;47.990;7.880;2023-02-28T04:38:21;3.43;;;1.00;;
16640;SDS011;8434;47.990;7.880;2023-02-28T04:41:06;2.47;;;1.73;;
16640;SDS011;8434;47.990;7.880;2023-02-28T04:43:52;1.57;;;1.10;;
16640;SDS011;8434;47.990;7.880;2023-02-28T04:46:37;1.57;;;0.83;;
16640;SDS011;8434;47.990;7.880;2023-02-28T04:49:24;1.93;;;0.90;;
16640;SDS011;8434;47.990;7.880;2023-02-28T04:52:09;1.17;;;1.00;;
16640;SDS011;8434;47.990;7.880;2023-02-28T04:54:55;1.50;;;1.33;;
16640;SDS011;8434;47.990;7.880;2023-02-28T04:57:40;2.00;;;1.03;;
16640;SDS011;8434;47.990;7.880;2023-02-28T05:00:26;4.03;;;1.13;;
16640;SDS011;8434;47.990;7.880;2023-02-28T05:03:12;3.00;;;1.23;;
16640;SDS011;8434;47.990;7.880;2023-02-28T05:05:58;2.47;;;1.10;;
16640;SDS011;8434;47.990;7.880;2023-02-28T05:08:44;7.13;;;1.60;;
16640;SDS011;8434;47.990;7.880;2023-02-28T05:11:30;3.17;;;1.37;;
16640;SDS011;8434;47.990;7.880;2023-02-28T05:14:18;5.07;;;2.13;;
16640;SDS011;8434;47.990;7.880;2023-02-28T05:17:04;7.47;;;2.03;;
16640;SDS011;8434;47.990;7.880;2023-02-28T05:19:49;7.17;;;2.80;;
16640;SDS011;8434;47.990;7.880;2023-02-28T05:22:36;5.90;;;2.30;;
16640;SDS011;8434;47.990;7.880;2023-02-28T05:25:22;7.57;;;2.83;;
16640;SDS011;8434;47.990;7.880;2023-02-28T05:28:07;15.40;;;4.53;;
16640;SDS011;8434;47.990;7.880;2023-02-28T05:30:53;25.73;;;5.17;;
16640;SDS011;8434;47.990;7.880;2023-02-28T05:33:38;27.50;;;7.07;;
16640;SDS011;8434;47.990;7.880;2023-02-28T05:36:24;40.33;;;6.83;;
16640;SDS011;8434;47.990;7.880;2023-02-28T05:39:10;31.50;;;6.10;;
16640;SDS011;8434;47.990;7.880;2023-02-28T05:41:57;18.10;;;6.37;;
16640;SDS011;8434;47.990;7.880;2023-02-28T05:44:42;23.73;;;6.37;;
16640;SDS011;8434;47.990;7.880;2023-02-28T05:47:28;19.57;;;6.50;;
16640;SDS011;8434;47.990;7.880;2023-02-28T05:50:13;20.27;;;5.43;;
16640;SDS011;8434;47.990;7.880;2023-02-28T05:52:59;17.50;;;5.90;;
16640;SDS011;8434;47.990;7.880;2023-02-28T05:55:45;16.47;;;5.67;;
16640;SDS011;8434;47.990;7.880;2023-02-28T05:58:31;16.30;;;4.93;;
16640;SDS011;8434;47.990;7.880;2023-02-28T06:01:20;12.53;;;4.63;;
16640;SDS011;8434;47.990;7.880;2023-02-28T06:04:07;15.00;;;5.93;;
16640;SDS011;8434;47.990;7.880;2023-02-28T06:06:53;15.13;;;4.13;;
16640;SDS011;8434;47.990;7.880;2023-02-28T06:09:40;10.60;;;4.53;;
16640;SDS011;8434;47.990;7.880;2023-02-28T06:12:27;12.37;;;4.40;;
16640;SDS011;8434;47.990;7.880;2023-02-28T06:15:13;17.00;;;5.47;;
16640;SDS011;8434;47.990;7.880;2023-02-28T06:17:58;13.37;;;4.53;;
16640;SDS011;8434;47.990;7.880;2023-02-28T06:20:44;14.43;;;4.93;;
16640;SDS011;8434;47.990;7.880;2023-02-28T06:23:30;16.83;;;4.87;;
16640;SDS011;8434;47.990;7.880;2023-02-28T06:26:15;13.60;;;5.37;;
16640;SDS011;8434;47.990;7.880;2023-02-28T06:29:02;9.70;;;4.23;;
16640;SDS011;8434;47.990;7.880;2023-02-28T06:31:47;8.40;;;3.70;;
16640;SDS011;8434;47.990;7.880;2023-02-28T06:34:33;8.20;;;3.43;;
16640;SDS011;8434;47.990;7.880;2023-02-28T06:37:19;3.50;;;3.20;;
16640;SDS011;8434;47.990;7.880;2023-02-28T06:40:05;3.63;;;3.30;;
16640;SDS011;8434;47.990;7.880;2023-02-28T06:42:51;6.77;;;4.00;;
16640;SDS011;8434;47.990;7.880;2023-02-28T06:45:38;4.23;;;3.67;;
16640;SDS011;8434;47.990;7.880;2023-02-28T06:48:26;3.93;;;3.47;;
16640;SDS011;8434;47.990;7.880;2023-02-28T06:51:21;5.20;;;3.90;;
16640;SDS011;8434;47.990;7.880;2023-02-28T06:54:11;5.53;;;4.13;;
16640;SDS011;8434;47.990;7.880;2023-02-28T06:56:57;4.93;;;3.53;;
16640;SDS011;8434;47.990;7.880;2023-02-28T06:59:42;5.90;;;3.97;;
16640;SDS011;8434;47.990;7.880;2023-02-28T07:02:30;11.73;;;5.03;;
16640;SDS011;8434;47.990;7.880;2023-02-28T07:05:15;5.60;;;3.90;;
16640;SDS011;8434;47.990;7.880;2023-02-28T07:08:01;4.93;;;3.10;;
16640;SDS011;8434;47.990;7.880;2023-02-28T07:10:47;4.33;;;3.47;;
16640;SDS011;8434;47.990;7.880;2023-02-28T07:13:32;5.63;;;2.53;;
16640;SDS011;8434;47.990;7.880;2023-02-28T07:16:18;3.00;;;2.23;;
16640;SDS011;8434;47.990;7.880;2023-02-28T07:19:05;2.43;;;2.00;;
16640;SDS011;8434;47.990;7.880;2023-02-28T07:21:50;6.37;;;2.33;;
16640;SDS011;8434;47.990;7.880;2023-02-28T07:24:36;2.60;;;1.77;;
16640;SDS011;8434;47.990;7.880;2023-02-28T07:27:22;2.43;;;1.70;;
16640;SDS011;8434;47.990;7.880;2023-02-28T07:30:10;2.43;;;2.23;;
16640;SDS011;8434;47.990;7.880;2023-02-28T07:32:56;3.90;;;1.90;;
16640;SDS011;8434;47.990;7.880;2023-02-28T07:35:42;5.80;;;3.10;;
16640;SDS011;8434;47.990;7.880;2023-02-28T07:38:28;4.00;;;2.13;;
16640;SDS011;8434;47.990;7.880;2023-02-28T07:41:13;2.37;;;1.83;;
16640;SDS011;8434;47.990;7.880;2023-02-28T07:43:59;2.30;;;1.73;;
16640;SDS011;8434;47.990;7.880;2023-02-28T07:46:44;3.93;;;1.70;;
16640;SDS011;8434;47.990;7.880;2023-02-28T07:49:30;3.30;;;1.67;;
16640;SDS011;8434;47.990;7.880;2023-02-28T07:52:17;2.73;;;1.77;;
16640;SDS011;8434;47.990;7.880;2023-02-28T07:55:03;2.47;;;1.70;;
16640;SDS011;8434;47.990;7.880;2023-02-28T07:57:49;5.27;;;2.07;;
16640;SDS011;8434;47.990;7.880;2023-02-28T08:00:35;3.60;;;1.60;;
16640;SDS011;8434;47.990;7.880;2023-02-28T08:03:21;4.03;;;1.97;;
16640;SDS011;8434;47.990;7.880;2023-02-28T08:06:07;3.23;;;2.20;;
16640;SDS011;8434;47.990;7.880;2023-02-28T08:08:54;2.53;;;2.10;;
16640;SDS011;8434;47.990;7.880;2023-02-28T08:11:40;3.97;;;2.20;;
16640;SDS011;8434;47.990;7.880;2023-02-28T08:14:26;3.67;;;1.93;;
16640;SDS011;8434;47.990;7.880;2023-02-28T08:17:11;3.13;;;2.03;;
16640;SDS011;8434;47.990;7.880;2023-02-28T08:19:57;2.83;;;2.17;;
16640;SDS011;8434;47.990;7.880;2023-02-28T08:22:42;3.53;;;1.90;;
16640;SDS011;8434;47.990;7.880;2023-02-28T08:25:29;3.40;;;1.97;;
16640;SDS011;8434;47.990;7.880;2023-02-28T08:28:14;1.90;;;1.73;;
16640;SDS011;8434;47.990;7.880;2023-02-28T08:30:59;2.87;;;1.90;;
16640;SDS011;8434;47.990;7.880;2023-02-28T08:33:45;1.40;;;1.30;;
16640;SDS011;8434;47.990;7.880;2023-02-28T08:36:32;2.10;;;1.67;;
16640;SDS011;8434;47.990;7.880;2023-02-28T08:39:18;1.73;;;1.63;;
16640;SDS011;8434;47.990;7.880;2023-02-28T08:42:05;3.33;;;1.70;;
16640;SDS011;8434;47.990;7.880;2023-02-28T08:44:50;2.60;;;1.93;;
16640;SDS011;8434;47.990;7.880;2023-02-28T08:47:35;2.33;;;1.40;;
16640;SDS011;8434;47.990;7.880;2023-02-28T08:50:21;2.27;;;1.77;;
16640;SDS011;8434;47.990;7.880;2023-02-28T08:53:06;2.93;;;1.77;;
16640;SDS011;8434;47.990;7.880;2023-02-28T08:55:55;2.37;;;2.00;;
16640;SDS011;8434;47.990;7.880;2023-02-28T08:58:42;1.43;;;1.33;;
16640;SDS011;8434;47.990;7.880;2023-02-28T09:01:28;2.20;;;1.73;;
16640;SDS011;8434;47.990;7.880;2023-02-28T09:04:15;1.93;;;1.50;;
16640;SDS011;8434;47.990;7.880;2023-02-28T09:07:00;2.30;;;1.40;;
16640;SDS011;8434;47.990;7.880;2023-02-28T09:09:46;4.13;;;1.50;;
16640;SDS011;8434;47.990;7.880;2023-02-28T09:12:38;2.10;;;1.63;;
16640;SDS011;8434;47.990;7.880;2023-02-28T09:15:25;2.07;;;1.60;;
16640;SDS011;8434;47.990;7.880;2023-02-28T09:18:10;5.50;;;1.60;;
16640;SDS011;8434;47.990;7.880;2023-02-28T09:20:56;1.90;;;1.63;;
16640;SDS011;8434;47.990;7.880;2023-02-28T09:23:41;2.13;;;1.53;;
16640;SDS011;8434;47.990;7.880;2023-02-28T09:26:27;2.33;;;1.40;;
16640;SDS011;8434;47.990;7.880;2023-02-28T09:29:12;2.13;;;1.40;;
16640;SDS011;8434;47.990;7.880;2023-02-28T09:31:59;2.27;;;1.70;;
16640;SDS011;8434;47.990;7.880;2023-02-28T09:34:45;2.10;;;1.80;;
16640;SDS011;8434;47.990;7.880;2023-02-28T09:37:30;1.70;;;1.40;;
16640;SDS011;8434;47.990;7.880;2023-02-28T09:40:16;2.37;;;1.70;;
16640;SDS011;8434;47.990;7.880;2023-02-28T09:43:02;1.83;;;1.40;;
16640;SDS011;8434;47.990;7.880;2023-02-28T09:45:48;2.03;;;1.30;;
16640;SDS011;8434;47.990;7.880;2023-02-28T09:48:38;2.13;;;1.40;;
16640;SDS011;8434;47.990;7.880;2023-02-28T09:51:32;1.67;;;1.47;;
16640;SDS011;8434;47.990;7.880;2023-02-28T09:54:22;4.50;;;1.57;;
16640;SDS011;8434;47.990;7.880;2023-02-28T09:57:09;2.40;;;1.50;;
16640;SDS011;8434;47.990;7.880;2023-02-28T10:00:02;1.73;;;1.37;;
16640;SDS011;8434;47.990;7.880;2023-02-28T10:06:02;2.10;;;1.30;;
16640;SDS011;8434;47.990;7.880;2023-02-28T10:08:51;1.30;;;1.20;;
16640;SDS011;8434;47.990;7.880;2023-02-28T10:11:37;2.97;;;1.70;;
16640;SDS011;8434;47.990;7.880;2023-02-28T10:14:24;1.77;;;1.50;;
16640;SDS011;8434;47.990;7.880;2023-02-28T10:17:11;2.07;;;1.30;;
16640;SDS011;8434;47.990;7.880;2023-02-28T10:19:58;2.27;;;1.60;;
16640;SDS011;8434;47.990;7.880;2023-02-28T10:22:53;1.60;;;1.20;;
16640;SDS011;8434;47.990;7.880;2023-02-28T10:25:42;1.70;;;1.23;;
16640;SDS011;8434;47.990;7.880;2023-02-28T10:28:31;1.53;;;1.37;;
16640;SDS011;8434;47.990;7.880;2023-02-28T10:31:18;1.80;;;1.40;;
16640;SDS011;8434;47.990;7.880;2023-02-28T10:34:04;1.50;;;1.30;;
16640;SDS011;8434;47.990;7.880;2023-02-28T10:36:50;1.70;;;1.47;;
16640;SDS011;8434;47.990;7.880;2023-02-28T10:39:38;2.93;;;2.23;;
16640;SDS011;8434;47.990;7.880;2023-02-28T10:42:25;1.60;;;1.30;;
16640;SDS011;8434;47.990;7.880;2023-02-28T10:45:11;1.30;;;1.20;;
16640;SDS011;8434;47.990;7.880;2023-02-28T10:47:57;1.80;;;1.20;;
16640;SDS011;8434;47.990;7.880;2023-02-28T10:50:44;2.13;;;1.43;;
16640;SDS011;8434;47.990;7.880;2023-02-28T10:53:34;1.77;;;1.43;;
16640;SDS011;8434;47.990;7.880;2023-02-28T10:56:22;1.63;;;1.33;;
16640;SDS011;8434;47.990;7.880;2023-02-28T10:59:22;1.60;;;1.27;;
16640;SDS011;8434;47.990;7.880;2023-02-28T11:05:24;1.50;;;1.20;;
16640;SDS011;8434;47.990;7.880;2023-02-28T11:08:10;2.17;;;1.40;;
16640;SDS011;8434;47.990;7.880;2023-02-28T11:10:58;2.03;;;1.40;;
16640;SDS011;8434;47.990;7.880;2023-02-28T11:13:45;1.50;;;1.40;;
16640;SDS011;8434;47.990;7.880;2023-02-28T11:16:32;1.47;;;1.37;;
16640;SDS011;8434;47.990;7.880;2023-02-28T11:19:19;2.23;;;1.50;;
16640;SDS011;8434;47.990;7.880;2023-02-28T11:22:05;1.70;;;1.20;;
16640;SDS011;8434;47.990;7.880;2023-02-28T11:24:51;2.33;;;1.17;;
16640;SDS011;8434;47.990;7.880;2023-02-28T11:27:43;1.60;;;1.10;;
16640;SDS011;8434;47.990;7.880;2023-02-28T11:30:33;1.57;;;1.33;;
16640;SDS011;8434;47.990;7.880;2023-02-28T11:33:23;1.33;;;1.23;;
16640;SDS011;8434;47.990;7.880;2023-02-28T11:36:10;1.83;;;1.20;;
16640;SDS011;8434;47.990;7.880;2023-02-28T11:38:56;2.20;;;1.40;;
16640;SDS011;8434;47.990;7.880;2023-02-28T11:41:50;1.20;;;1.10;;
16640;SDS011;8434;47.990;7.880;2023-02-28T11:44:42;1.27;;;1.17;;
16640;SDS011;8434;47.990;7.880;2023-02-28T11:47:34;1.43;;;1.30;;
16640;SDS011;8434;47.990;7.880;2023-02-28T11:50:31;1.30;;;1.20;;
16640;SDS011;8434;47.990;7.880;2023-02-28T11:53:28;1.43;;;1.20;;
16640;SDS011;8434;47.990;7.880;2023-02-28T11:56:18;1.47;;;1.37;;
16640;SDS011;8434;47.990;7.880;2023-02-28T11:59:12;1.50;;;1.40;;
16640;SDS011;8434;47.990;7.880;2023-02-28T12:02:04;2.80;;;1.43;;
16640;SDS011;8434;47.990;7.880;2023-02-28T12:08:06;1.80;;;1.40;;
16640;SDS011;8434;47.990;7.880;2023-02-28T12:10:54;2.30;;;1.20;;
16640;SDS011;8434;47.990;7.880;2023-02-28T12:13:46;1.30;;;1.17;;
16640;SDS011;8434;47.990;7.880;2023-02-28T12:19:38;2.17;;;1.57;;
16640;SDS011;8434;47.990;7.880;2023-02-28T12:22:28;1.37;;;1.17;;
16640;SDS011;8434;47.990;7.880;2023-02-28T12:25:21;1.73;;;1.30;;
16640;SDS011;8434;47.990;7.880;2023-02-28T12:28:08;1.27;;;1.07;;
16640;SDS011;8434;47.990;7.880;2023-02-28T12:30:56;1.50;;;1.40;;
16640;SDS011;8434;47.990;7.880;2023-02-28T12:33:43;1.43;;;1.33;;
16640;SDS011;8434;47.990;7.880;2023-02-28T12:36:29;1.40;;;1.30;;
16640;SDS011;8434;47.990;7.880;2023-02-28T12:39:15;1.30;;;1.20;;
16640;SDS011;8434;47.990;7.880;2023-02-28T12:42:05;1.20;;;1.10;;
16640;SDS011;8434;47.990;7.880;2023-02-28T12:44:52;1.13;;;1.03;;
16640;SDS011;8434;47.990;7.880;2023-02-28T12:47:39;1.10;;;1.00;;
16640;SDS011;8434;47.990;7.880;2023-02-28T12:50:27;1.43;;;1.30;;
16640;SDS011;8434;47.990;7.880;2023-02-28T12:53:15;1.40;;;1.30;;
16640;SDS011;8434;47.990;7.880;2023-02-28T12:56:06;1.63;;;1.30;;
16640;SDS011;8434;47.990;7.880;2023-02-28T12:58:56;1.57;;;1.20;;
16640;SDS011;8434;47.990;7.880;2023-02-28T13:04:57;1.50;;;1.30;;
16640;SDS011;8434;47.990;7.880;2023-02-28T13:08:02;1.30;;;1.20;;
16640;SDS011;8434;47.990;7.880;2023-02-28T13:10:49;1.90;;;1.47;;
16640;SDS011;8434;47.990;7.880;2023-02-28T13:13:38;1.40;;;1.10;;
16640;SDS011;8434;47.990;7.880;2023-02-28T13:16:25;1.00;;;1.00;;
16640;SDS011;8434;47.990;7.880;2023-02-28T13:19:10;1.37;;;1.13;;
16640;SDS011;8434;47.990;7.880;2023-02-28T13:21:56;1.20;;;1.10;;
16640;SDS011;8434;47.990;7.880;2023-02-28T13:24:44;1.20;;;1.10;;
16640;SDS011;8434;47.990;7.880;2023-02-28T13:27:35;1.10;;;1.00;;
16640;SDS011;8434;47.990;7.880;2023-02-28T13:33:27;1.43;;;1.33;;
16640;SDS011;8434;47.990;7.880;2023-02-28T13:36:25;1.00;;;1.00;;
16640;SDS011;8434;47.990;7.880;2023-02-28T13:42:31;1.53;;;1.40;;
16640;SDS011;8434;47.990;7.880;2023-02-28T13:45:25;1.83;;;1.13;;
16640;SDS011;8434;47.990;7.880;2023-02-28T13:48:15;1.50;;;1.20;;
16640;SDS011;8434;47.990;7.880;2023-02-28T13:54:03;1.33;;;0.90;;
16640;SDS011;8434;47.990;7.880;2023-02-28T13:56:51;1.27;;;1.10;;
16640;SDS011;8434;47.990;7.880;2023-02-28T13:59:42;1.13;;;1.03;;
16640;SDS011;8434;47.990;7.880;2023-02-28T14:05:29;1.40;;;1.27;;
16640;SDS011;8434;47.990;7.880;2023-02-28T14:08:16;1.30;;;1.20;;
16640;SDS011;8434;47.990;7.880;2023-02-28T14:11:05;1.30;;;1.20;;
16640;SDS011;8434;47.990;7.880;2023-02-28T14:13:51;1.20;;;1.07;;
16640;SDS011;8434;47.990;7.880;2023-02-28T14:16:38;1.50;;;1.40;;
16640;SDS011;8434;47.990;7.880;2023-02-28T14:19:25;1.30;;;1.20;;
16640;SDS011;8434;47.990;7.880;2023-02-28T14:22:14;1.63;;;1.30;;
16640;SDS011;8434;47.990;7.880;2023-02-28T14:25:06;1.30;;;1.13;;
16640;SDS011;8434;47.990;7.880;2023-02-28T14:27:58;1.33;;;1.20;;
16640;SDS011;8434;47.990;7.880;2023-02-28T14:30:56;1.30;;;1.20;;
16640;SDS011;8434;47.990;7.880;2023-02-28T14:33:45;1.20;;;1.10;;
16640;SDS011;8434;47.990;7.880;2023-02-28T14:36:33;1.30;;;1.20;;
16640;SDS011;8434;47.990;7.880;2023-02-28T14:39:21;1.30;;;1.20;;
16640;SDS011;8434;47.990;7.880;2023-02-28T14:45:18;1.57;;;1.10;;
16640;SDS011;8434;47.990;7.880;2023-02-28T14:48:03;1.63;;;1.33;;
16640;SDS011;8434;47.990;7.880;2023-02-28T14:50:54;1.23;;;1.13;;
16640;SDS011;8434;47.990;7.880;2023-02-28T14:53:40;1.20;;;1.10;;
16640;SDS011;8434;47.990;7.880;2023-02-28T14:56:26;2.27;;;1.40;;
16640;SDS011;8434;47.990;7.880;2023-02-28T14:59:23;1.50;;;1.23;;
16640;SDS011;8434;47.990;7.880;2023-02-28T15:02:15;1.40;;;1.27;;
16640;SDS011;8434;47.990;7.880;2023-02-28T15:05:22;1.50;;;1.33;;
16640;SDS011;8434;47.990;7.880;2023-02-28T15:08:10;1.33;;;1.23;;
16640;SDS011;8434;47.990;7.880;2023-02-28T15:10:57;1.73;;;1.17;;
16640;SDS011;8434;47.990;7.880;2023-02-28T15:13:44;1.63;;;1.40;;
16640;SDS011;8434;47.990;7.880;2023-02-28T15:16:31;2.87;;;1.40;;
16640;SDS011;8434;47.990;7.880;2023-02-28T15:19:20;1.80;;;1.37;;
16640;SDS011;8434;47.990;7.880;2023-02-28T15:22:10;2.97;;;1.60;;
16640;SDS011;8434;47.990;7.880;2023-02-28T15:24:57;1.77;;;1.27;;
16640;SDS011;8434;47.990;7.880;2023-02-28T15:27:44;3.07;;;1.87;;
16640;SDS011;8434;47.990;7.880;2023-02-28T15:30:30;3.93;;;1.80;;
16640;SDS011;8434;47.990;7.880;2023-02-28T15:33:20;5.27;;;2.10;;
16640;SDS011;8434;47.990;7.880;2023-02-28T15:36:11;3.40;;;2.07;;
16640;SDS011;8434;47.990;7.880;2023-02-28T15:38:57;4.37;;;1.87;;
16640;SDS011;8434;47.990;7.880;2023-02-28T15:41:43;7.10;;;2.37;;
16640;SDS011;8434;47.990;7.880;2023-02-28T15:44:30;4.90;;;1.73;;
16640;SDS011;8434;47.990;7.880;2023-02-28T15:47:19;2.93;;;1.90;;
16640;SDS011;8434;47.990;7.880;2023-02-28T15:53:13;5.17;;;2.00;;
16640;SDS011;8434;47.990;7.880;2023-02-28T15:56:00;3.93;;;1.97;;
16640;SDS011;8434;47.990;7.880;2023-02-28T15:58:45;7.43;;;1.93;;
16640;SDS011;8434;47.990;7.880;2023-02-28T16:01:32;5.13;;;1.80;;
16640;SDS011;8434;47.990;7.880;2023-02-28T16:04:18;3.20;;;1.60;;
16640;SDS011;8434;47.990;7.880;2023-02-28T16:07:04;4.67;;;2.23;;
16640;SDS011;8434;47.990;7.880;2023-02-28T16:09:51;2.80;;;1.87;;
16640;SDS011;8434;47.990;7.880;2023-02-28T16:12:37;3.20;;;2.00;;
16640;SDS011;8434;47.990;7.880;2023-02-28T16:15:23;1.77;;;1.67;;
16640;SDS011;8434;47.990;7.880;2023-02-28T16:18:10;3.27;;;1.80;;
16640;SDS011;8434;47.990;7.880;2023-02-28T16:20:56;5.40;;;1.77;;
16640;SDS011;8434;47.990;7.880;2023-02-28T16:23:41;2.70;;;1.80;;
16640;SDS011;8434;47.990;7.880;2023-02-28T16:26:28;2.53;;;1.90;;
16640;SDS011;8434;47.990;7.880;2023-02-28T16:29:13;2.57;;;1.57;;
16640;SDS011;8434;47.990;7.880;2023-02-28T16:32:00;1.97;;;1.80;;
16640;SDS011;8434;47.990;7.880;2023-02-28T16:34:46;2.53;;;1.63;;
16640;SDS011;8434;47.990;7.880;2023-02-28T16:37:32;3.20;;;1.97;;
16640;SDS011;8434;47.990;7.880;2023-02-28T16:40:18;2.23;;;1.90;;
16640;SDS011;8434;47.990;7.880;2023-02-28T16:43:07;3.47;;;1.97;;
16640;SDS011;8434;47.990;7.880;2023-02-28T16:45:56;2.97;;;1.87;;
16640;SDS011;8434;47.990;7.880;2023-02-28T16:48:42;3.90;;;1.87;;
16640;SDS011;8434;47.990;7.880;2023-02-28T16:51:27;2.63;;;1.60;;
16640;SDS011;8434;47.990;7.880;2023-02-28T16:54:13;1.90;;;1.70;;
16640;SDS011;8434;47.990;7.880;2023-02-28T16:56:59;1.93;;;1.70;;
16640;SDS011;8434;47.990;7.880;2023-02-28T16:59:46;1.60;;;1.50;;
16640;SDS011;8434;47.990;7.880;2023-02-28T17:02:31;3.17;;;1.97;;
16640;SDS011;8434;47.990;7.880;2023-02-28T17:05:16;1.70;;;1.60;;
16640;SDS011;8434;47.990;7.880;2023-02-28T17:08:03;3.33;;;1.70;;
16640;SDS011;8434;47.990;7.880;2023-02-28T17:10:49;2.43;;;1.70;;
16640;SDS011;8434;47.990;7.880;2023-02-28T17:13:35;2.27;;;1.90;;
16640;SDS011;8434;47.990;7.880;2023-02-28T17:16:23;2.67;;;1.80;;
16640;SDS011;8434;47.990;7.880;2023-02-28T17:19:11;2.97;;;2.23;;
16640;SDS011;8434;47.990;7.880;2023-02-28T17:21:57;2.90;;;1.80;;
16640;SDS011;8434;47.990;7.880;2023-02-28T17:24:42;3.17;;;2.00;;
16640;SDS011;8434;47.990;7.880;2023-02-28T17:27:29;3.23;;;2.03;;
16640;SDS011;8434;47.990;7.880;2023-02-28T17:30:15;2.40;;;1.67;;
16640;SDS011;8434;47.990;7.880;2023-02-28T17:33:02;2.17;;;1.80;;
16640;SDS011;8434;47.990;7.880;2023-02-28T17:35:48;3.47;;;2.23;;
16640;SDS011;8434;47.990;7.880;2023-02-28T17:38:33;2.10;;;1.73;;
16640;SDS011;8434;47.990;7.880;2023-02-28T17:41:19;4.30;;;2.00;;
16640;SDS011;8434;47.990;7.880;2023-02-28T17:44:04;2.07;;;1.77;;